Time;durP1;ratioP1;P1;durP2;ratioP2;P2;SDS_P1;SDS_P2;PMS_P1;PMS_P2;Temp;Humidity;BMP_temperature;BMP_pressure;BME280_temperature;BME280_humidity;BME280_pressure;Samples;Min_cycle;Max_cycle;Signal;HPM_P1;HPM_P2
2021/11/05 00:02:03;;;;;;;;;;;9.30;99.90;;;;;;5033404;28;19908;-78
2021/11/05 00:04:29;;;;;;;;;;;9.20;99.90;;;;;;5033420;28;19905;-78
2021/11/05 00:06:54;;;;;;;;;;;9.00;99.90;;;;;;5033485;28;19905;-78
2021/11/05 00:09:20;;;;;;;;;;;8.80;99.90;;;;;;5031968;28;20404;-79
2021/11/05 00:11:45;;;;;;;;;;;8.70;99.90;;;;;;5032883;28;19917;-80
2021/11/05 00:14:11;;;;;;;;;;;8.60;99.90;;;;;;5033352;28;19905;-78
2021/11/05 00:16:36;;;;;;;;;;;8.60;99.90;;;;;;5033224;28;19909;-78
2021/11/05 00:19:03;;;;;;;;;;;8.90;99.90;;;;;;5034482;28;19951;-78
2021/11/05 00:21:28;;;;;;;;;;;9.00;99.90;;;;;;5036957;28;19924;-78
2021/11/05 00:23:54;;;;;;;;;;;9.10;99.90;;;;;;5037044;28;19909;-79
2021/11/05 00:26:20;;;;;;;;;;;9.00;99.90;;;;;;5036974;28;19912;-79
2021/11/05 00:28:45;;;;;;;;;;;9.10;99.90;;;;;;5037097;28;19905;-80
2021/11/05 00:31:11;;;;;;;;;;;9.00;99.90;;;;;;5036916;28;20373;-78
2021/11/05 00:33:37;;;;;;;;;;;8.60;99.90;;;;;;5037118;28;19957;-79
2021/11/05 00:36:02;;;;;;;;;;;8.50;99.90;;;;;;5036779;28;20317;-79
2021/11/05 00:38:28;;;;;;;;;;;8.40;99.90;;;;;;5036767;28;19905;-78
2021/11/05 00:40:53;;;;;;;;;;;8.50;99.90;;;;;;5036874;28;19905;-81
2021/11/05 00:43:20;;;;;;;;;;;8.60;99.90;;;;;;5036711;28;19909;-81
2021/11/05 00:45:46;;;;;;;;;;;8.60;99.90;;;;;;5037107;28;19920;-81
2021/11/05 00:48:11;;;;;;;;;;;8.70;99.90;;;;;;5035390;28;19905;-80
2021/11/05 00:50:37;;;;;;;;;;;8.60;99.90;;;;;;5035310;28;19959;-81
2021/11/05 00:53:03;;;;;;;;;;;8.50;99.90;;;;;;5035269;28;19911;-80
2021/11/05 00:55:28;;;;;;;;;;;8.50;99.90;;;;;;5036974;28;20380;-80
2021/11/05 00:57:54;;;;;;;;;;;8.50;99.90;;;;;;5036632;28;19952;-81
2021/11/05 01:00:20;;;;;;;;;;;8.30;99.90;;;;;;5035118;28;19959;-81
2021/11/05 01:02:45;;;;;;;;;;;8.10;99.90;;;;;;5036393;28;19913;-81
2021/11/05 01:05:16;;;;;;;;;;;8.10;99.90;;;;;;5036370;28;19911;-81
2021/11/05 01:07:41;;;;;;;;;;;8.00;99.90;;;;;;5036350;28;19908;-81
2021/11/05 01:10:07;;;;;;;;;;;8.10;99.90;;;;;;5036110;28;20016;-80
2021/11/05 01:12:33;;;;;;;;;;;8.30;99.90;;;;;;5034703;28;20344;-79
2021/11/05 01:14:59;;;;;;;;;;;8.30;99.90;;;;;;5036330;28;19944;-81
2021/11/05 01:17:25;;;;;;;;;;;8.60;99.90;;;;;;5036137;28;19905;-81
2021/11/05 01:19:50;;;;;;;;;;;8.60;99.90;;;;;;5036073;28;19912;-80
2021/11/05 01:22:16;;;;;;;;;;;8.60;99.90;;;;;;5035944;28;20276;-80
2021/11/05 01:24:42;;;;;;;;;;;8.50;99.90;;;;;;5034702;28;19905;-81
2021/11/05 01:27:08;;;;;;;;;;;8.40;99.90;;;;;;5036033;28;19912;-81
2021/11/05 01:29:34;;;;;;;;;;;8.30;99.90;;;;;;5035902;28;19905;-80
2021/11/05 01:31:59;;;;;;;;;;;8.40;99.90;;;;;;5035383;28;19905;-81
2021/11/05 01:34:25;;;;;;;;;;;8.40;99.90;;;;;;5034553;28;19992;-81
2021/11/05 01:36:51;;;;;;;;;;;8.70;99.90;;;;;;5035893;28;20328;-80
2021/11/05 01:39:17;;;;;;;;;;;8.80;99.90;;;;;;5035808;28;19991;-80
2021/11/05 01:41:43;;;;;;;;;;;8.70;99.90;;;;;;5036081;28;19917;-81
2021/11/05 01:44:09;;;;;;;;;;;8.80;99.90;;;;;;5034319;28;20391;-81
2021/11/05 01:46:41;;;;;;;;;;;8.80;99.90;;;;;;5034334;28;19980;-81
2021/11/05 01:49:08;;;;;;;;;;;8.50;99.90;;;;;;5034031;28;19955;-82
2021/11/05 01:51:35;;;;;;;;;;;8.30;99.90;;;;;;5035500;28;19912;-80
2021/11/05 01:54:01;;;;;;;;;;;8.20;99.90;;;;;;5034204;28;19955;-79
2021/11/05 01:56:26;;;;;;;;;;;8.20;99.90;;;;;;5035381;28;19905;-82
2021/11/05 01:58:52;;;;;;;;;;;8.20;99.90;;;;;;5035373;28;19905;-80
2021/11/05 02:01:17;;;;;;;;;;;8.10;99.90;;;;;;5034214;28;20044;-81
2021/11/05 02:03:43;;;;;;;;;;;8.10;99.90;;;;;;5035232;28;19906;-81
2021/11/05 02:06:10;;;;;;;;;;;8.00;99.90;;;;;;5034027;28;20387;-81
2021/11/05 02:08:37;;;;;;;;;;;8.00;99.90;;;;;;5035501;28;19905;-81
2021/11/05 02:11:04;;;;;;;;;;;8.30;99.90;;;;;;5034989;28;20436;-81
2021/11/05 02:13:29;;;;;;;;;;;8.40;99.90;;;;;;5035074;28;20312;-81
2021/11/05 02:15:56;;;;;;;;;;;8.40;99.90;;;;;;5035077;28;19905;-82
2021/11/05 02:18:22;;;;;;;;;;;8.20;99.90;;;;;;5035001;28;20310;-81
2021/11/05 02:20:49;;;;;;;;;;;8.20;99.90;;;;;;5033689;28;19909;-80
2021/11/05 02:23:14;;;;;;;;;;;8.10;99.90;;;;;;5034823;28;19959;-82
2021/11/05 02:25:40;;;;;;;;;;;8.30;99.90;;;;;;5035063;28;19909;-81
2021/11/05 02:28:07;;;;;;;;;;;8.40;99.90;;;;;;5034938;28;19995;-80
2021/11/05 02:30:32;;;;;;;;;;;8.40;99.90;;;;;;5034856;28;19944;-81
2021/11/05 02:32:58;;;;;;;;;;;8.30;99.90;;;;;;5034722;28;20313;-81
2021/11/05 02:35:23;;;;;;;;;;;8.30;99.90;;;;;;5034692;28;19954;-80
2021/11/05 02:37:49;;;;;;;;;;;7.90;99.90;;;;;;5035189;28;19959;-82
2021/11/05 02:40:16;;;;;;;;;;;7.70;99.90;;;;;;5034525;28;19905;-81
2021/11/05 02:42:42;;;;;;;;;;;7.60;99.90;;;;;;5034199;28;19909;-81
2021/11/05 02:45:08;;;;;;;;;;;7.70;99.90;;;;;;5034452;28;19915;-81
2021/11/05 02:47:33;;;;;;;;;;;7.50;99.90;;;;;;5034400;28;19905;-81
2021/11/05 02:50:01;;;;;;;;;;;7.50;99.90;;;;;;5033168;28;19955;-80
2021/11/05 02:52:26;;;;;;;;;;;7.70;99.90;;;;;;5034571;28;20416;-82
2021/11/05 02:54:52;;;;;;;;;;;7.90;99.90;;;;;;5034254;28;19912;-79
2021/11/05 02:57:18;;;;;;;;;;;8.00;99.90;;;;;;5034161;28;19905;-81
2021/11/05 02:59:43;;;;;;;;;;;8.00;99.90;;;;;;5034210;28;19937;-82
2021/11/05 03:02:09;;;;;;;;;;;7.90;99.90;;;;;;5034377;28;19923;-80
2021/11/05 03:04:35;;;;;;;;;;;7.80;99.90;;;;;;5034154;28;20424;-81
2021/11/05 03:07:03;;;;;;;;;;;7.70;99.90;;;;;;5034160;28;19912;-81
2021/11/05 03:09:35;;;;;;;;;;;7.70;99.90;;;;;;5034059;28;19959;-80
2021/11/05 03:12:01;;;;;;;;;;;7.80;99.90;;;;;;5032281;28;20390;-80
2021/11/05 03:14:27;;;;;;;;;;;8.10;99.90;;;;;;5032734;28;20300;-80
2021/11/05 03:16:53;;;;;;;;;;;8.00;99.90;;;;;;5034111;28;19905;-81
2021/11/05 03:19:19;;;;;;;;;;;7.90;99.90;;;;;;5032672;28;19928;-81
2021/11/05 03:21:45;;;;;;;;;;;7.80;99.90;;;;;;5033813;28;19944;-81
2021/11/05 03:24:10;;;;;;;;;;;7.60;99.90;;;;;;5033864;28;19992;-79
2021/11/05 03:26:36;;;;;;;;;;;7.60;99.90;;;;;;5033926;28;20353;-80
2021/11/05 03:29:02;;;;;;;;;;;7.50;99.90;;;;;;5033795;28;19905;-81
2021/11/05 03:31:27;;;;;;;;;;;7.40;99.90;;;;;;5034177;28;20270;-80
2021/11/05 03:33:53;;;;;;;;;;;7.20;99.90;;;;;;5033908;28;19948;-81
2021/11/05 03:36:19;;;;;;;;;;;7.00;99.90;;;;;;5033715;28;19912;-81
2021/11/05 03:38:44;;;;;;;;;;;7.00;99.90;;;;;;5033631;28;19905;-81
2021/11/05 03:41:10;;;;;;;;;;;6.90;99.90;;;;;;5032299;28;19905;-82
2021/11/05 03:43:36;;;;;;;;;;;6.70;99.90;;;;;;5034252;28;19912;-80
2021/11/05 03:46:01;;;;;;;;;;;6.80;99.90;;;;;;5033605;28;20328;-80
2021/11/05 03:48:27;;;;;;;;;;;7.10;99.90;;;;;;5032249;28;20395;-80
2021/11/05 03:50:53;;;;;;;;;;;7.00;99.90;;;;;;5033558;28;19992;-81
2021/11/05 03:53:18;;;;;;;;;;;6.70;99.90;;;;;;5032295;28;19912;-81
2021/11/05 03:55:44;;;;;;;;;;;6.80;99.90;;;;;;5037593;28;19905;-80
2021/11/05 03:58:10;;;;;;;;;;;6.90;99.90;;;;;;5037760;28;19912;-81
2021/11/05 04:00:35;;;;;;;;;;;7.00;99.90;;;;;;5037912;28;19992;-80
2021/11/05 04:03:02;;;;;;;;;;;7.10;99.90;;;;;;5036168;28;19908;-81
2021/11/05 04:05:27;;;;;;;;;;;7.10;99.90;;;;;;5036192;28;19909;-80
2021/11/05 04:07:53;;;;;;;;;;;7.20;99.90;;;;;;5037474;28;20258;-81
2021/11/05 04:10:18;;;;;;;;;;;7.20;99.90;;;;;;5037524;28;19927;-80
2021/11/05 04:12:44;;;;;;;;;;;7.10;99.90;;;;;;5037658;28;19905;-80
2021/11/05 04:15:10;;;;;;;;;;;6.80;99.90;;;;;;5035984;28;19955;-79
2021/11/05 04:17:36;;;;;;;;;;;6.50;99.90;;;;;;5035966;28;19939;-81
2021/11/05 04:20:02;;;;;;;;;;;6.50;99.90;;;;;;5037584;28;19929;-80
2021/11/05 04:22:28;;;;;;;;;;;6.60;99.90;;;;;;5037077;28;20317;-80
2021/11/05 04:24:53;;;;;;;;;;;6.80;99.90;;;;;;5037220;28;19905;-81
2021/11/05 04:27:19;;;;;;;;;;;6.70;99.90;;;;;;5037098;28;19905;-81
2021/11/05 04:29:46;;;;;;;;;;;6.60;99.90;;;;;;5036983;28;20397;-77
2021/11/05 04:32:12;;;;;;;;;;;6.40;99.90;;;;;;5035614;28;19909;-78
2021/11/05 04:34:38;;;;;;;;;;;6.30;99.90;;;;;;5037092;28;20361;-78
2021/11/05 04:37:03;;;;;;;;;;;6.20;99.90;;;;;;5035501;28;19912;-78
2021/11/05 04:39:29;;;;;;;;;;;6.40;99.90;;;;;;5036917;28;19912;-78
2021/11/05 04:41:55;;;;;;;;;;;6.50;99.90;;;;;;5037010;28;19915;-79
2021/11/05 04:44:21;;;;;;;;;;;6.50;99.90;;;;;;5036674;28;19919;-78
2021/11/05 04:46:47;;;;;;;;;;;6.30;99.90;;;;;;5036634;28;19959;-78
2021/11/05 04:49:13;;;;;;;;;;;6.20;99.90;;;;;;5036563;28;19905;-79
2021/11/05 04:51:38;;;;;;;;;;;6.20;99.90;;;;;;5036775;28;20320;-78
2021/11/05 04:54:06;;;;;;;;;;;6.30;99.90;;;;;;5036562;28;20304;-78
2021/11/05 04:56:32;;;;;;;;;;;6.20;99.90;;;;;;5036774;28;19988;-80
2021/11/05 04:58:57;;;;;;;;;;;6.40;99.90;;;;;;5036458;28;19955;-81
2021/11/05 05:01:23;;;;;;;;;;;6.10;99.90;;;;;;5036389;28;19905;-81
2021/11/05 05:03:49;;;;;;;;;;;6.20;99.90;;;;;;5036409;28;19912;-80
2021/11/05 05:06:15;;;;;;;;;;;6.00;99.90;;;;;;5036327;28;19988;-80
2021/11/05 05:08:41;;;;;;;;;;;6.00;99.90;;;;;;5036566;28;19992;-81
2021/11/05 05:11:06;;;;;;;;;;;6.10;99.90;;;;;;5036206;28;19917;-81
2021/11/05 05:13:32;;;;;;;;;;;6.10;99.90;;;;;;5036285;28;19955;-81
2021/11/05 05:15:59;;;;;;;;;;;5.90;99.90;;;;;;5036407;28;19921;-80
2021/11/05 05:18:24;;;;;;;;;;;6.00;99.90;;;;;;5036237;28;19988;-81
2021/11/05 05:20:50;;;;;;;;;;;5.90;99.90;;;;;;5036055;28;20342;-80
2021/11/05 05:23:16;;;;;;;;;;;5.80;99.90;;;;;;5034755;28;19909;-80
2021/11/05 05:25:42;;;;;;;;;;;5.70;99.90;;;;;;5036129;28;20378;-80
2021/11/05 05:28:07;;;;;;;;;;;5.60;99.90;;;;;;5034641;28;20324;-81
2021/11/05 05:30:33;;;;;;;;;;;5.80;99.90;;;;;;5035960;28;19909;-80
2021/11/05 05:32:59;;;;;;;;;;;5.90;99.90;;;;;;5035862;28;19955;-81
2021/11/05 05:35:25;;;;;;;;;;;6.10;99.90;;;;;;5035973;28;19905;-80
2021/11/05 05:37:54;;;;;;;;;;;6.20;99.90;;;;;;5035772;28;20273;-80
2021/11/05 05:40:20;;;;;;;;;;;6.00;99.90;;;;;;5035771;28;19959;-80
2021/11/05 05:42:46;;;;;;;;;;;6.00;99.90;;;;;;5035598;28;19909;-80
2021/11/05 05:45:11;;;;;;;;;;;5.90;99.90;;;;;;5035592;28;19912;-80
2021/11/05 05:47:38;;;;;;;;;;;5.90;99.90;;;;;;5034255;28;19932;-80
2021/11/05 05:50:10;;;;;;;;;;;5.80;99.90;;;;;;5035542;28;19905;-81
2021/11/05 05:52:35;;;;;;;;;;;5.70;99.90;;;;;;5035477;28;19905;-80
2021/11/05 05:55:01;;;;;;;;;;;5.60;99.90;;;;;;5034155;28;19905;-81
2021/11/05 05:57:27;;;;;;;;;;;5.40;99.90;;;;;;5034046;28;19979;-81
2021/11/05 05:59:52;;;;;;;;;;;5.40;99.90;;;;;;5035378;28;19905;-80
2021/11/05 06:02:18;;;;;;;;;;;5.50;99.90;;;;;;5035455;28;19971;-81
2021/11/05 06:04:44;;;;;;;;;;;5.40;99.90;;;;;;5035238;28;20431;-80
2021/11/05 06:07:09;;;;;;;;;;;5.30;99.90;;;;;;5035618;28;19972;-80
2021/11/05 06:09:35;;;;;;;;;;;5.20;99.90;;;;;;5035428;28;19948;-81
2021/11/05 06:12:00;;;;;;;;;;;5.20;99.90;;;;;;5034779;28;19917;-80
2021/11/05 06:14:26;;;;;;;;;;;5.40;99.90;;;;;;5035132;28;20372;-81
2021/11/05 06:16:52;;;;;;;;;;;5.40;99.90;;;;;;5034535;28;19912;-82
2021/11/05 06:19:17;;;;;;;;;;;5.30;99.90;;;;;;5035202;28;19977;-80
2021/11/05 06:21:43;;;;;;;;;;;5.60;99.90;;;;;;5033571;28;20369;-80
2021/11/05 06:24:08;;;;;;;;;;;5.70;99.90;;;;;;5033629;28;19905;-79
2021/11/05 06:26:34;;;;;;;;;;;5.80;99.90;;;;;;5034866;28;19912;-82
2021/11/05 06:29:02;;;;;;;;;;;5.60;99.90;;;;;;5033522;28;19912;-80
2021/11/05 06:31:29;;;;;;;;;;;5.40;99.90;;;;;;5034766;28;19915;-80
2021/11/05 06:33:55;;;;;;;;;;;5.20;99.90;;;;;;5034725;28;19905;-81
2021/11/05 06:36:20;;;;;;;;;;;5.20;99.90;;;;;;5034669;28;20375;-80
2021/11/05 06:38:46;;;;;;;;;;;5.40;99.90;;;;;;5035160;28;19905;-79
2021/11/05 06:41:13;;;;;;;;;;;5.40;99.90;;;;;;5034542;28;19943;-80
2021/11/05 06:43:39;;;;;;;;;;;5.20;99.90;;;;;;5033267;28;19916;-80
2021/11/05 06:46:05;;;;;;;;;;;5.10;99.90;;;;;;5033261;28;19905;-80
2021/11/05 06:48:31;;;;;;;;;;;5.20;99.90;;;;;;5034402;28;20282;-81
2021/11/05 06:50:57;;;;;;;;;;;5.10;99.90;;;;;;5034407;28;20328;-80
2021/11/05 06:53:23;;;;;;;;;;;5.00;99.90;;;;;;5034280;28;19954;-81
2021/11/05 06:55:49;;;;;;;;;;;5.30;99.90;;;;;;5034521;28;19932;-80
2021/11/05 06:58:15;;;;;;;;;;;5.20;99.90;;;;;;5032969;28;19991;-80
2021/11/05 07:00:40;;;;;;;;;;;5.10;99.90;;;;;;5034218;28;19948;-80
2021/11/05 07:03:06;;;;;;;;;;;5.10;99.90;;;;;;5034053;28;19909;-80
2021/11/05 07:05:34;;;;;;;;;;;4.90;99.90;;;;;;5034144;28;19912;-80
2021/11/05 07:07:59;;;;;;;;;;;5.00;99.90;;;;;;5032770;28;19927;-80
2021/11/05 07:10:25;;;;;;;;;;;5.20;99.90;;;;;;5032838;28;19996;-80
2021/11/05 07:12:51;;;;;;;;;;;5.20;99.90;;;;;;5032770;28;20328;-80
2021/11/05 07:15:18;;;;;;;;;;;5.50;99.90;;;;;;5034004;28;20293;-80
2021/11/05 07:17:43;;;;;;;;;;;5.50;99.90;;;;;;5034002;28;19952;-80
2021/11/05 07:20:09;;;;;;;;;;;5.50;99.90;;;;;;5034018;28;20277;-79
2021/11/05 07:22:36;;;;;;;;;;;5.80;99.90;;;;;;5033830;28;19916;-80
2021/11/05 07:25:03;;;;;;;;;;;6.30;99.90;;;;;;5033850;28;20365;-81
2021/11/05 07:27:29;;;;;;;;;;;6.20;99.90;;;;;;5032454;28;19955;-80
2021/11/05 07:29:56;;;;;;;;;;;6.60;99.90;;;;;;5032998;28;19936;-80
2021/11/05 07:32:22;;;;;;;;;;;7.20;99.90;;;;;;5033744;28;19932;-80
2021/11/05 07:34:48;;;;;;;;;;;7.60;99.90;;;;;;5032443;28;19909;-81
2021/11/05 07:37:16;;;;;;;;;;;8.00;99.90;;;;;;5034141;28;19912;-77
2021/11/05 07:39:42;;;;;;;;;;;8.40;99.90;;;;;;5032198;28;20377;-78
2021/11/05 07:42:08;;;;;;;;;;;8.80;99.90;;;;;;5033609;28;19920;-78
2021/11/05 07:44:34;;;;;;;;;;;8.20;99.90;;;;;;5032215;28;19905;-79
2021/11/05 07:47:00;;;;;;;;;;;7.90;99.90;;;;;;5032181;28;19905;-78
2021/11/05 07:49:25;;;;;;;;;;;8.30;99.90;;;;;;5033702;28;19931;-77
2021/11/05 07:51:53;;;;;;;;;;;8.20;99.90;;;;;;5033909;28;19905;-78
2021/11/05 07:54:19;;;;;;;;;;;8.20;99.90;;;;;;5033629;28;19912;-78
2021/11/05 07:56:46;;;;;;;;;;;9.70;99.90;;;;;;5032189;28;19905;-81
2021/11/05 07:59:12;;;;;;;;;;;10.70;96.60;;;;;;5033508;28;19955;-80
2021/11/05 08:01:37;;;;;;;;;;;11.60;94.70;;;;;;5033340;28;20328;-79
2021/11/05 08:04:03;;;;;;;;;;;12.70;93.00;;;;;;5033434;28;19905;-79
2021/11/05 08:06:29;;;;;;;;;;;12.70;89.60;;;;;;5033367;28;19952;-78
2021/11/05 08:08:54;;;;;;;;;;;11.90;90.50;;;;;;5033614;28;19905;-79
2021/11/05 08:11:20;;;;;;;;;;;12.10;90.50;;;;;;5033335;28;19917;-79
2021/11/05 08:13:45;;;;;;;;;;;12.40;91.10;;;;;;5031887;28;19930;-79
2021/11/05 08:16:11;;;;;;;;;;;14.30;85.90;;;;;;5033499;28;19905;-79
2021/11/05 08:18:37;;;;;;;;;;;15.30;79.90;;;;;;5033318;28;19905;-79
2021/11/05 08:21:03;;;;;;;;;;;15.50;77.20;;;;;;5033351;28;19905;-80
2021/11/05 08:23:28;;;;;;;;;;;16.00;76.00;;;;;;5033376;28;19949;-79
2021/11/05 08:25:54;;;;;;;;;;;16.40;73.40;;;;;;5033258;28;19912;-79
2021/11/05 08:28:20;;;;;;;;;;;16.60;72.10;;;;;;5033214;28;19905;-80
2021/11/05 08:30:47;;;;;;;;;;;17.20;71.50;;;;;;5033192;28;19905;-79
2021/11/05 08:33:13;;;;;;;;;;;18.00;70.10;;;;;;5033661;28;19905;-79
2021/11/05 08:35:41;;;;;;;;;;;18.00;68.60;;;;;;5031838;28;20380;-81
2021/11/05 08:38:11;;;;;;;;;;;18.30;68.30;;;;;;5033564;28;19905;-80
2021/11/05 08:40:36;;;;;;;;;;;18.60;65.50;;;;;;5035311;28;19905;-79
2021/11/05 08:43:02;;;;;;;;;;;19.80;64.80;;;;;;5035433;28;19916;-80
2021/11/05 08:45:28;;;;;;;;;;;20.40;62.30;;;;;;5036710;28;19991;-80
2021/11/05 08:47:54;;;;;;;;;;;21.20;60.40;;;;;;5036719;28;19959;-82
2021/11/05 08:50:22;;;;;;;;;;;21.80;59.50;;;;;;5036489;28;19988;-80
2021/11/05 08:52:48;;;;;;;;;;;21.90;58.90;;;;;;5036798;28;19908;-79
2021/11/05 08:55:14;;;;;;;;;;;21.40;58.20;;;;;;5037168;28;19924;-81
2021/11/05 08:57:40;;;;;;;;;;;21.60;58.90;;;;;;5036680;28;19909;-80
2021/11/05 09:00:10;;;;;;;;;;;22.20;57.50;;;;;;5036768;28;20261;-80
2021/11/05 09:02:36;;;;;;;;;;;22.80;56.40;;;;;;5036432;28;19940;-80
2021/11/05 09:05:03;;;;;;;;;;;22.70;56.10;;;;;;5036475;28;19958;-79
2021/11/05 09:07:29;;;;;;;;;;;22.50;56.00;;;;;;5036438;28;19911;-80
2021/11/05 09:09:55;;;;;;;;;;;22.80;55.80;;;;;;5036691;28;19987;-81
2021/11/05 09:12:20;;;;;;;;;;;22.50;56.10;;;;;;5037046;28;19909;-80
2021/11/05 09:14:46;;;;;;;;;;;23.20;55.50;;;;;;5036219;28;19931;-81
2021/11/05 09:17:11;;;;;;;;;;;23.70;54.50;;;;;;5036240;28;19931;-80
2021/11/05 09:19:37;;;;;;;;;;;24.70;53.30;;;;;;5036195;28;19916;-81
2021/11/05 09:22:03;;;;;;;;;;;24.50;53.10;;;;;;5036114;28;20321;-80
2021/11/05 09:24:28;;;;;;;;;;;25.00;53.10;;;;;;5036467;28;19909;-81
2021/11/05 09:26:55;;;;;;;;;;;25.90;51.70;;;;;;5036089;28;19905;-80
2021/11/05 09:29:20;;;;;;;;;;;25.20;52.90;;;;;;5036004;28;19912;-80
2021/11/05 09:31:46;;;;;;;;;;;26.00;51.20;;;;;;5036007;28;19905;-81
2021/11/05 09:34:12;;;;;;;;;;;26.70;50.60;;;;;;5035934;28;19905;-81
2021/11/05 09:36:37;;;;;;;;;;;26.40;50.50;;;;;;5034610;28;20391;-80
2021/11/05 09:39:04;;;;;;;;;;;24.80;50.90;;;;;;5034426;28;20278;-80
2021/11/05 09:41:29;;;;;;;;;;;25.30;52.30;;;;;;5035653;28;19905;-81
2021/11/05 09:43:55;;;;;;;;;;;25.90;51.20;;;;;;5034439;28;20012;-81
2021/11/05 09:46:21;;;;;;;;;;;25.90;51.20;;;;;;5035670;28;20307;-80
2021/11/05 09:48:48;;;;;;;;;;;25.50;50.10;;;;;;5034401;28;19955;-80
2021/11/05 09:51:14;;;;;;;;;;;25.20;52.10;;;;;;5033525;28;20361;-81
2021/11/05 09:53:40;;;;;;;;;;;26.30;50.70;;;;;;5034142;28;19908;-81
2021/11/05 09:56:07;;;;;;;;;;;28.30;48.30;;;;;;5035580;28;19905;-81
2021/11/05 09:58:32;;;;;;;;;;;27.80;48.30;;;;;;5034183;28;19905;-80
2021/11/05 10:00:58;;;;;;;;;;;28.00;46.90;;;;;;5035426;28;20449;-80
2021/11/05 10:03:24;;;;;;;;;;;28.20;46.50;;;;;;5034009;28;19909;-81
2021/11/05 10:05:50;;;;;;;;;;;28.50;46.00;;;;;;5035625;28;19928;-80
2021/11/05 10:08:24;;;;;;;;;;;28.50;46.10;;;;;;5033911;28;19913;-81
2021/11/05 10:10:50;;;;;;;;;;;28.50;44.80;;;;;;5035286;28;19917;-81
2021/11/05 10:13:22;;;;;;;;;;;28.40;45.40;;;;;;5035725;28;19904;-81
2021/11/05 10:15:49;;;;;;;;;;;29.00;43.60;;;;;;5035189;28;19913;-81
2021/11/05 10:18:17;;;;;;;;;;;29.80;43.10;;;;;;5035089;28;20003;-81
2021/11/05 10:20:43;;;;;;;;;;;30.00;41.60;;;;;;5035031;28;19905;-81
2021/11/05 10:23:09;;;;;;;;;;;27.50;42.90;;;;;;5035220;28;19905;-80
2021/11/05 10:25:47;;;;;;;;;;;26.40;44.50;;;;;;5033708;28;20255;-82
2021/11/05 10:28:18;;;;;;;;;;;26.20;44.70;;;;;;5034879;28;19904;-81
2021/11/05 10:30:44;;;;;;;;;;;28.40;44.20;;;;;;5033540;28;19905;-81
2021/11/05 10:33:14;;;;;;;;;;;29.80;42.70;;;;;;5033494;28;19908;-81
2021/11/05 10:35:40;;;;;;;;;;;28.90;40.90;;;;;;5034959;28;19916;-81
2021/11/05 10:38:07;;;;;;;;;;;27.50;44.40;;;;;;5034640;28;19905;-81
2021/11/05 10:40:43;;;;;;;;;;;27.50;43.50;;;;;;5034600;28;19905;-81
2021/11/05 10:43:10;;;;;;;;;;;26.80;43.20;;;;;;5033324;28;19951;-81
2021/11/05 10:45:36;;;;;;;;;;;26.70;43.20;;;;;;5033225;28;20358;-80
2021/11/05 10:48:03;;;;;;;;;;;28.30;43.80;;;;;;5034459;28;19912;-81
2021/11/05 10:50:34;;;;;;;;;;;29.00;43.50;;;;;;5034787;28;19909;-81
2021/11/05 10:53:10;;;;;;;;;;;30.90;41.60;;;;;;5034445;28;19909;-81
2021/11/05 10:55:45;;;;;;;;;;;32.40;41.00;;;;;;5034342;28;19905;-81
2021/11/05 10:58:30;;;;;;;;;;;33.00;40.60;;;;;;5033056;28;19954;-81
2021/11/05 11:00:57;;;;;;;;;;;33.40;37.90;;;;;;5034238;28;20460;-81
2021/11/05 11:03:31;;;;;;;;;;;33.50;39.10;;;;;;5032774;28;20358;-81
2021/11/05 11:05:59;;;;;;;;;;;33.80;38.30;;;;;;5034446;28;19905;-81
2021/11/05 11:08:29;;;;;;;;;;;35.50;37.10;;;;;;5034271;28;19911;-81
2021/11/05 11:10:55;;;;;;;;;;;36.30;36.40;;;;;;5032687;28;19924;-81
2021/11/05 11:13:32;;;;;;;;;;;36.40;36.50;;;;;;5034069;28;19909;-81
2021/11/05 11:15:57;;;;;;;;;;;37.30;35.60;;;;;;5032792;28;20016;-81
2021/11/05 11:18:23;;;;;;;;;;;36.10;34.40;;;;;;5032738;28;19905;-81
2021/11/05 11:20:49;;;;;;;;;;;33.80;35.80;;;;;;5032737;28;19911;-81
2021/11/05 11:23:15;;;;;;;;;;;32.60;36.30;;;;;;5033987;28;19905;-81
2021/11/05 11:25:42;;;;;;;;;;;32.00;36.40;;;;;;5032477;28;20345;-80
2021/11/05 11:28:07;;;;;;;;;;;32.80;36.40;;;;;;5033884;28;19948;-81
2021/11/05 11:30:33;;;;;;;;;;;35.40;35.80;;;;;;5032585;28;19936;-82
2021/11/05 11:32:59;;;;;;;;;;;35.30;34.40;;;;;;5033780;28;19909;-81
2021/11/05 11:35:25;;;;;;;;;;;35.70;34.90;;;;;;5034029;28;19952;-80
2021/11/05 11:37:51;;;;;;;;;;;33.60;36.10;;;;;;5032498;28;19904;-80
2021/11/05 11:40:17;;;;;;;;;;;30.90;38.30;;;;;;5032381;28;20321;-80
2021/11/05 11:42:43;;;;;;;;;;;28.80;40.20;;;;;;5032381;28;19909;-81
2021/11/05 11:45:10;;;;;;;;;;;27.90;41.60;;;;;;5033512;28;19912;-79
2021/11/05 11:47:42;;;;;;;;;;;26.40;43.10;;;;;;5033453;28;19936;-80
2021/11/05 11:50:22;;;;;;;;;;;25.40;44.70;;;;;;5032254;28;20390;-79
2021/11/05 11:53:07;;;;;;;;;;;25.90;44.10;;;;;;5033724;28;19909;-80
2021/11/05 11:55:34;;;;;;;;;;;28.80;41.40;;;;;;5033503;28;19919;-81
2021/11/05 11:58:15;;;;;;;;;;;31.20;40.80;;;;;;5033838;28;19905;-80
2021/11/05 12:00:41;;;;;;;;;;;33.40;37.10;;;;;;5033528;28;19905;-81
2021/11/05 12:03:11;;;;;;;;;;;34.70;36.00;;;;;;5033497;28;19975;-80
2021/11/05 12:05:39;;;;;;;;;;;35.50;34.60;;;;;;5034297;28;19906;-81
2021/11/05 12:08:21;;;;;;;;;;;32.70;34.80;;;;;;5033434;28;20357;-80
2021/11/05 12:10:49;;;;;;;;;;;32.10;37.00;;;;;;5031960;28;19996;-81
2021/11/05 12:13:35;;;;;;;;;;;29.30;37.50;;;;;;5033339;28;19916;-80
2021/11/05 12:16:13;;;;;;;;;;;30.60;38.80;;;;;;5034944;28;19905;-80
2021/11/05 12:19:10;;;;;;;;;;;31.60;37.50;;;;;;5036044;28;19905;-78
2021/11/05 12:21:37;;;;;;;;;;;26.90;39.90;;;;;;5027545;28;19905;-79
2021/11/05 12:24:19;;;;;;;;;;;24.10;44.10;;;;;;5037399;28;19943;-79
2021/11/05 12:27:04;;;;;;;;;;;23.20;45.40;;;;;;5037474;28;20273;-80
2021/11/05 12:29:29;;;;;;;;;;;30.10;41.50;;;;;;5037066;28;19912;-81
2021/11/05 12:31:55;;;;;;;;;;;34.30;39.40;;;;;;5036838;28;19909;-83
2021/11/05 12:34:37;;;;;;;;;;;37.40;34.90;;;;;;5025281;28;19912;-81
2021/11/05 12:37:03;;;;;;;;;;;35.60;33.50;;;;;;5031604;28;20293;-79
2021/11/05 12:39:40;;;;;;;;;;;30.10;37.50;;;;;;5036154;28;19905;-80
2021/11/05 12:42:10;;;;;;;;;;;27.60;40.70;;;;;;5036259;28;19905;-79
2021/11/05 12:44:56;;;;;;;;;;;25.70;42.20;;;;;;5032866;28;19967;-80
2021/11/05 12:47:47;;;;;;;;;;;23.80;45.00;;;;;;5035670;28;20361;-79
2021/11/05 12:50:14;;;;;;;;;;;22.50;48.10;;;;;;5029846;28;19905;-81
2021/11/05 12:52:40;;;;;;;;;;;22.00;49.40;;;;;;5035872;28;20381;-79
2021/11/05 12:55:06;;;;;;;;;;;21.20;50.70;;;;;;5051406;28;19919;-79
2021/11/05 12:57:32;;;;;;;;;;;21.20;50.70;;;;;;5033302;28;19911;-80
2021/11/05 12:59:57;;;;;;;;;;;21.30;51.90;;;;;;5035879;28;19909;-79
2021/11/05 13:02:24;;;;;;;;;;;21.20;51.70;;;;;;5036009;28;20008;-79
2021/11/05 13:04:52;;;;;;;;;;;22.10;51.40;;;;;;5035027;28;19944;-81
2021/11/05 13:07:17;;;;;;;;;;;23.10;48.10;;;;;;5035086;28;19905;-79
2021/11/05 13:09:44;;;;;;;;;;;22.70;47.60;;;;;;5036227;28;20405;-80
2021/11/05 13:12:15;;;;;;;;;;;22.90;48.70;;;;;;5034481;28;20385;-80
2021/11/05 13:14:41;;;;;;;;;;;25.20;45.90;;;;;;5036368;28;19909;-80
2021/11/05 13:17:15;;;;;;;;;;;27.80;43.20;;;;;;5034999;28;19905;-81
2021/11/05 13:19:49;;;;;;;;;;;29.30;40.70;;;;;;5036535;28;20369;-81
2021/11/05 13:22:15;;;;;;;;;;;29.90;39.40;;;;;;5036451;28;19912;-82
2021/11/05 13:24:41;;;;;;;;;;;30.60;40.10;;;;;;5034962;28;19911;-80
2021/11/05 13:27:07;;;;;;;;;;;31.60;39.00;;;;;;5033538;28;20296;-80
2021/11/05 13:29:33;;;;;;;;;;;32.50;39.20;;;;;;5034786;28;19911;-81
2021/11/05 13:32:11;;;;;;;;;;;33.70;37.80;;;;;;5034677;28;19909;-81
2021/11/05 13:34:37;;;;;;;;;;;33.20;38.80;;;;;;5036347;28;20057;-81
2021/11/05 13:37:03;;;;;;;;;;;33.60;38.40;;;;;;5035994;28;19920;-81
2021/11/05 13:39:28;;;;;;;;;;;34.80;38.50;;;;;;5034650;28;19913;-80
2021/11/05 13:41:54;;;;;;;;;;;35.20;37.40;;;;;;5036456;28;19947;-81
2021/11/05 13:44:20;;;;;;;;;;;34.90;37.50;;;;;;5035787;28;19928;-80
2021/11/05 13:46:45;;;;;;;;;;;35.20;37.70;;;;;;5035782;28;19905;-81
2021/11/05 13:49:13;;;;;;;;;;;35.40;37.40;;;;;;5034458;28;19958;-81
2021/11/05 13:51:40;;;;;;;;;;;34.90;36.60;;;;;;5035595;28;19944;-80
2021/11/05 13:54:10;;;;;;;;;;;34.30;37.50;;;;;;5035914;28;19905;-80
2021/11/05 13:56:38;;;;;;;;;;;34.50;37.30;;;;;;5034324;28;20258;-80
2021/11/05 13:59:05;;;;;;;;;;;34.00;37.10;;;;;;5035528;28;19956;-80
2021/11/05 14:01:31;;;;;;;;;;;34.40;36.70;;;;;;5035734;28;20007;-82
2021/11/05 14:03:59;;;;;;;;;;;34.80;36.70;;;;;;5035747;28;19911;-80
2021/11/05 14:06:24;;;;;;;;;;;35.40;36.90;;;;;;5035613;28;19947;-80
2021/11/05 14:08:50;;;;;;;;;;;35.70;36.00;;;;;;5035522;28;19912;-81
2021/11/05 14:11:24;;;;;;;;;;;35.50;36.30;;;;;;5035262;28;19921;-81
2021/11/05 14:13:50;;;;;;;;;;;35.10;36.50;;;;;;5033818;28;19913;-80
2021/11/05 14:16:15;;;;;;;;;;;31.60;37.80;;;;;;5034070;28;19905;-80
2021/11/05 14:18:41;;;;;;;;;;;27.60;42.40;;;;;;5035329;28;19905;-78
2021/11/05 14:21:25;;;;;;;;;;;26.00;43.60;;;;;;5034237;28;19911;-79
2021/11/05 14:23:52;;;;;;;;;;;25.20;44.50;;;;;;5035674;28;19908;-79